Time;durP1;ratioP1;P1;durP2;ratioP2;P2;SDS_P1;SDS_P2;PMS_P1;PMS_P2;Temp;Humidity;BMP_temperature;BMP_pressure;BME280_temperature;BME280_humidity;BME280_pressure;Samples;Min_cycle;Max_cycle;Signal;HPM_P1;HPM_P2
2022/05/13 00:00:41;;;;;;;5.82;2.17;;;;;;;;;;5013596;28;20390;-87
2022/05/13 00:03:26;;;;;;;11.48;2.67;;;;;;;;;;5014822;28;20041;-88
2022/05/13 00:06:10;;;;;;;5.80;1.77;;;;;;;;;;5013763;28;20045;-87
2022/05/13 00:08:55;;;;;;;7.68;2.30;;;;;;;;;;5014392;28;20076;-87
2022/05/13 00:11:39;;;;;;;8.95;2.75;;;;;;;;;;5013445;28;20057;-88
2022/05/13 00:14:34;;;;;;;;;;;;;;;;;;;;;
2022/05/13 00:17:20;;;;;;;5.25;2.53;;;;;;;;;;5014597;28;20084;-87
2022/05/13 00:20:05;;;;;;;7.57;2.85;;;;;;;;;;5013493;28;20041;-87
2022/05/13 00:22:52;;;;;;;9.05;2.53;;;;;;;;;;5013213;28;20067;-87
2022/05/13 00:25:39;;;;;;;9.40;2.22;;;;;;;;;;5013328;28;20077;-88
2022/05/13 00:28:23;;;;;;;7.68;2.40;;;;;;;;;;5013559;28;20044;-87
2022/05/13 00:31:08;;;;;;;8.70;3.13;;;;;;;;;;5013283;28;20552;-87
2022/05/13 00:33:53;;;;;;;9.93;3.17;;;;;;;;;;5013120;28;20481;-88
2022/05/13 00:36:38;;;;;;;7.45;2.40;;;;;;;;;;5012893;28;20524;-86
2022/05/13 00:39:25;;;;;;;6.32;2.35;;;;;;;;;;5013239;28;20401;-87
2022/05/13 00:42:12;;;;;;;7.15;2.65;;;;;;;;;;5013070;28;20068;-87
2022/05/13 00:44:59;;;;;;;4.88;2.55;;;;;;;;;;5013881;28;20076;-87
2022/05/13 00:47:45;;;;;;;8.57;2.55;;;;;;;;;;5012977;28;20088;-87
2022/05/13 00:50:34;;;;;;;6.80;2.33;;;;;;;;;;5013128;28;20109;-87
2022/05/13 00:53:19;;;;;;;6.03;2.30;;;;;;;;;;5014026;28;20497;-87
2022/05/13 00:56:04;;;;;;;7.88;2.65;;;;;;;;;;5012362;28;20518;-87
2022/05/13 00:58:51;;;;;;;6.90;2.25;;;;;;;;;;5012702;28;20068;-87
2022/05/13 01:01:36;;;;;;;7.22;2.22;;;;;;;;;;5013025;28;20161;-88
2022/05/13 01:04:21;;;;;;;11.23;2.92;;;;;;;;;;5013886;28;20079;-87
2022/05/13 01:07:14;;;;;;;8.80;2.50;;;;;;;;;;5013546;28;20072;-87
2022/05/13 01:10:00;;;;;;;7.30;2.63;;;;;;;;;;5012578;28;20068;-87
2022/05/13 01:12:49;;;;;;;9.10;2.53;;;;;;;;;;5012491;28;20032;-87
2022/05/13 01:15:36;;;;;;;7.85;2.65;;;;;;;;;;5013596;28;20071;-87
2022/05/13 01:18:28;;;;;;;8.82;2.35;;;;;;;;;;5012574;28;20541;-88
2022/05/13 01:21:29;;;;;;;8.85;2.97;;;;;;;;;;5013037;28;20075;-88
2022/05/13 01:24:16;;;;;;;10.32;3.03;;;;;;;;;;5012639;28;20466;-88
2022/05/13 01:27:01;;;;;;;9.50;3.40;;;;;;;;;;5012127;28;20076;-87
2022/05/13 01:29:48;;;;;;;8.32;2.45;;;;;;;;;;5012373;28;20037;-87
2022/05/13 01:32:33;;;;;;;8.88;2.58;;;;;;;;;;5013426;28;20425;-87
2022/05/13 01:35:18;;;;;;;7.55;2.50;;;;;;;;;;5012596;28;20080;-87
2022/05/13 01:38:03;;;;;;;6.55;2.25;;;;;;;;;;5012047;28;20036;-87
2022/05/13 01:40:58;;;;;;;10.65;2.75;;;;;;;;;;5012337;28;20037;-87
2022/05/13 01:43:43;;;;;;;8.35;2.60;;;;;;;;;;5012632;28;20033;-87
2022/05/13 01:46:29;;;;;;;7.30;3.08;;;;;;;;;;5013320;28;20076;-87
2022/05/13 01:49:16;;;;;;;15.98;3.63;;;;;;;;;;5012541;28;20073;-87
2022/05/13 01:52:03;;;;;;;10.05;2.88;;;;;;;;;;5012093;28;20033;-87
2022/05/13 01:54:48;;;;;;;9.00;2.70;;;;;;;;;;5011917;28;20076;-87
2022/05/13 01:57:35;;;;;;;9.15;2.17;;;;;;;;;;4998397;28;20044;-87
2022/05/13 02:00:21;;;;;;;11.57;3.00;;;;;;;;;;5012391;28;20044;-87
2022/05/13 02:06:22;;;;;;;5.72;2.60;;;;;;;;;;5022100;28;20457;-88
2022/05/13 02:09:07;;;;;;;7.43;2.78;;;;;;;;;;5021572;28;20037;-86
2022/05/13 02:11:54;;;;;;;10.32;2.80;;;;;;;;;;5022896;28;20060;-85
2022/05/13 02:14:39;;;;;;;8.90;2.70;;;;;;;;;;5023705;28;20049;-86
2022/05/13 02:17:24;;;;;;;7.43;2.42;;;;;;;;;;5020901;28;20092;-88
2022/05/13 02:20:10;;;;;;;9.30;3.60;;;;;;;;;;5018384;28;20398;-89
2022/05/13 02:22:54;;;;;;;6.85;2.90;;;;;;;;;;5012043;28;20125;-87
2022/05/13 02:25:39;;;;;;;9.85;3.45;;;;;;;;;;5013497;28;20100;-88
2022/05/13 02:28:24;;;;;;;9.90;3.25;;;;;;;;;;5013366;28;20088;-88
2022/05/13 02:31:17;;;;;;;8.05;2.83;;;;;;;;;;5012688;28;20036;-88
2022/05/13 02:34:02;;;;;;;;;;;11.70;99.90;;;;;;5012530;28;20525;-88
2022/05/13 02:37:04;;;;;;;9.30;2.70;;;;;;;;;;4998330;28;19925;-87
2022/05/13 02:39:49;;;;;;;9.38;3.25;;;;;;;;;;5012273;28;20084;-88
2022/05/13 02:42:38;;;;;;;8.00;3.22;;;;;;;;;;5011811;28;20073;-88
2022/05/13 02:45:33;;;;;;;8.45;3.03;;;;;;;;;;5011894;28;20505;-88
2022/05/13 02:48:18;;;;;;;10.30;3.03;;;;;;;;;;5011443;28;20049;-87
2022/05/13 02:51:05;;;;;;;10.98;2.97;;;;;;;;;;4997584;28;20041;-88
2022/05/13 02:53:51;;;;;;;9.35;3.00;;;;;;;;;;5012694;28;20084;-88
2022/05/13 02:56:36;;;;;;;7.65;3.20;;;;;;;;;;4986497;28;20049;-87
2022/05/13 02:59:22;;;;;;;13.43;3.40;;;;;;;;;;4972289;28;20038;-87
2022/05/13 03:02:10;;;;;;;10.27;3.33;;;;;;;;;;4975888;28;20071;-88
2022/05/13 03:05:01;;;;;;;8.88;3.28;;;;;;;;;;4977052;28;20089;-87
2022/05/13 03:07:45;;;;;;;12.25;3.88;;;;;;;;;;4976076;28;20466;-87
2022/05/13 03:10:34;;;;;;;7.65;3.55;;;;;;;;;;4975922;28;20085;-89
2022/05/13 03:13:19;;;;;;;13.68;3.45;;;;;;;;;;4975542;28;20041;-87
2022/05/13 03:16:10;;;;;;;8.25;3.17;;;;;;;;;;4975467;28;20049;-88
2022/05/13 03:19:03;;;;;;;9.45;3.78;;;;;;;;;;4975563;28;20105;-88
2022/05/13 03:21:50;;;;;;;8.97;3.57;;;;;;;;;;4975688;28;20038;-88
2022/05/13 03:24:35;;;;;;;8.73;3.95;;;;;;;;;;4975681;28;20073;-88
2022/05/13 03:27:22;;;;;;;10.98;3.30;;;;;;;;;;4975453;28;20091;-87
2022/05/13 03:30:08;;;;;;;11.85;4.30;;;;;;;;;;4975413;28;20037;-87
2022/05/13 03:32:55;;;;;;;9.10;3.67;;;;;;;;;;4976606;28;20486;-88
2022/05/13 03:35:51;;;;;;;8.57;3.17;;;;;;;;;;4975417;28;20407;-88
2022/05/13 03:38:44;;;;;;;15.27;3.58;;;;;;;;;;4975380;28;20089;-88
2022/05/13 03:41:29;;;;;;;7.72;3.17;;;;;;;;;;4975012;28;20042;-88
2022/05/13 03:44:14;;;;;;;10.13;3.55;;;;;;;;;;4975109;28;20046;-88
2022/05/13 03:46:59;;;;;;;12.45;3.85;;;;;;;;;;4975224;28;20529;-87
2022/05/13 03:49:47;;;;;;;12.30;3.58;;;;;;;;;;4975255;28;20072;-87
2022/05/13 03:52:32;;;;;;;9.30;3.30;;;;;;;;;;4974847;28;20065;-87
2022/05/13 03:55:19;;;;;;;10.27;3.75;;;;;;;;;;4983962;28;20061;-88
2022/05/13 03:58:04;;;;;;;10.02;3.55;;;;;;;;;;4994506;28;20041;-88
2022/05/13 04:00:51;;;;;;;11.27;4.28;;;;;;;;;;4994571;28;20038;-88
2022/05/13 04:03:37;;;;;;;12.40;3.67;;;;;;;;;;4994391;28;20064;-88
2022/05/13 04:09:28;;;;;;;14.23;3.33;;;;;;;;;;4995006;28;20130;-88
2022/05/13 04:18:25;;;;;;;14.65;4.53;;;;;;;;;;4994093;28;20109;-88
2022/05/13 04:21:15;;;;;;;13.93;3.88;;;;;;;;;;4993971;28;20497;-88
2022/05/13 04:24:01;;;;;;;12.55;3.80;;;;;;;;;;4994036;28;20093;-87
2022/05/13 04:26:47;;;;;;;12.00;4.00;;;;;;;;;;4993963;28;20045;-88
2022/05/13 04:29:34;;;;;;;12.32;3.78;;;;;;;;;;4993590;28;20037;-88
2022/05/13 04:32:29;;;;;;;;;;;;;;;;;;;;;
2022/05/13 04:35:16;;;;;;;20.75;4.68;;;;;;;;;;4994500;28;20521;-91
2022/05/13 04:38:04;;;;;;;16.08;4.60;;;;;;;;;;4993702;28;20041;-87
2022/05/13 04:40:56;;;;;;;10.60;4.03;;;;;;;;;;4993799;28;20605;-89
2022/05/13 04:43:41;;;;;;;11.95;3.75;;;;;;;;;;4993763;28;20049;-87
2022/05/13 04:46:26;;;;;;;12.85;3.50;;;;;;;;;;4993290;28;20088;-88
2022/05/13 04:49:11;;;;;;;15.40;4.00;;;;;;;;;;4993734;28;20100;-87
2022/05/13 04:52:13;;;;;;;14.15;3.28;;;;;;;;;;4993391;28;20496;-88
2022/05/13 04:54:58;;;;;;;13.13;3.80;;;;;;;;;;4997804;28;20144;-88
2022/05/13 04:57:43;;;;;;;13.38;4.05;;;;;;;;;;5012928;28;20041;-87
2022/05/13 05:00:28;;;;;;;13.20;3.85;;;;;;;;;;5012591;28;20049;-87
2022/05/13 05:03:15;;;;;;;13.60;4.38;;;;;;;;;;5012757;28;20095;-87
2022/05/13 05:06:00;;;;;;;8.20;3.28;;;;;;;;;;5012869;28;20044;-87
2022/05/13 05:08:45;;;;;;;10.90;4.03;;;;;;;;;;5012682;28;20092;-87
2022/05/13 05:11:39;;;;;;;15.05;4.50;;;;;;;;;;5012322;28;20041;-88
2022/05/13 05:14:39;;;;;;;;;;;;;;;;;;;;;
2022/05/13 05:17:32;;;;;;;11.38;3.58;;;;;;;;;;5012472;28;20505;-87
2022/05/13 05:20:20;;;;;;;14.88;3.65;;;;;;;;;;4998691;28;20045;-89
2022/05/13 05:23:05;;;;;;;14.40;3.97;;;;;;;;;;5011822;28;20040;-88
2022/05/13 05:25:53;;;;;;;10.07;3.38;;;;;;;;;;5012459;28;20099;-88
2022/05/13 05:28:51;;;;;;;;;;;;;;;;;;;;;
2022/05/13 05:31:43;;;;;;;14.57;3.60;;;;;;;;;;5013135;28;20040;-88
2022/05/13 05:34:34;;;;;;;10.65;3.33;;;;;;;;;;4998215;28;20041;-88
2022/05/13 05:37:28;;;;;;;;;;;;;;;;;;;;;
2022/05/13 05:40:16;;;;;;;9.98;3.40;;;;;;;;;;5013264;28;20180;-88
2022/05/13 05:43:08;;;;;;;14.15;3.42;;;;;;;;;;4998419;28;20041;-87
2022/05/13 05:45:55;;;;;;;15.75;4.03;;;;;;;;;;5012228;28;20041;-88
2022/05/13 05:49:00;;;;;;;19.48;4.50;;;;;;;;;;5012020;28;20440;-88
2022/05/13 05:51:56;;;;;;;11.55;3.15;;;;;;;;;;5012070;28;20092;-88
2022/05/13 05:58:08;;;;;;;12.25;3.15;;;13.10;99.90;;;;;;5012789;28;20061;-87
2022/05/13 06:00:53;;;;;;;12.90;3.67;;;;;;;;;;4998308;28;20045;-87
2022/05/13 06:03:43;;;;;;;16.65;3.05;;;;;;;;;;5011705;28;20087;-87
2022/05/13 06:06:28;;;;;;;19.48;3.42;;;;;;;;;;5011722;28;20080;-87
2022/05/13 06:09:13;;;;;;;15.02;3.45;;;;;;;;;;5012180;28;20057;-89
2022/05/13 06:12:05;;;;;;;23.05;3.88;;;;;;;;;;5011981;28;20493;-88
2022/05/13 06:14:50;;;;;;;15.15;3.22;;;;;;;;;;5011629;28;20096;-88
2022/05/13 06:17:37;;;;;;;10.98;3.10;;;;;;;;;;5012681;28;20097;-88
2022/05/13 06:20:30;;;;;;;11.32;2.75;;;;;;;;;;5012103;28;20045;-88
2022/05/13 06:23:15;;;;;;;9.88;3.42;;;;;;;;;;5011905;28;20088;-88
2022/05/13 06:26:03;;;;;;;12.32;3.15;;;;;;;;;;5011763;28;20045;-88
2022/05/13 06:28:48;;;;;;;7.70;2.33;;;;;;;;;;5011455;28;20037;-87
2022/05/13 06:31:35;;;;;;;19.38;2.97;;;;;;;;;;5011487;28;20041;-87
2022/05/13 06:34:22;;;;;;;9.73;2.63;;;;;;;;;;5013229;28;20041;-87
2022/05/13 06:37:06;;;;;;;9.55;2.80;;;;;;;;;;5015399;28;20394;-87
2022/05/13 06:39:53;;;;;;;10.98;2.38;;;;;;;;;;5015163;28;20040;-88
2022/05/13 06:42:43;;;;;;;9.55;2.55;;;;;;;;;;5015192;28;20417;-87
2022/05/13 06:45:39;;;;;;;21.50;3.10;;;;;;;;;;5015387;28;20044;-88
2022/05/13 06:48:28;;;;;;;10.05;2.40;;;;;;;;;;5001506;28;20056;-87
2022/05/13 06:51:13;;;;;;;7.78;2.20;;;;;;;;;;5016293;28;20044;-88
2022/05/13 06:54:09;;;;;;;6.00;2.13;;;;;;;;;;5015132;28;20037;-88
2022/05/13 07:03:37;;;;;;;;;;;;;;;;;;;;;
2022/05/13 07:06:43;;;;;;;;;;;;;;;;;;;;;
2022/05/13 07:09:37;;;;;;;7.68;2.65;;;;;;;;;;4995660;28;20036;-86
2022/05/13 07:15:52;;;;;;;9.13;2.58;;;;;;;;;;4996068;28;20050;-88
2022/05/13 07:18:38;;;;;;;8.52;1.70;;;;;;;;;;4995494;28;20050;-89
2022/05/13 07:21:29;;;;;;;9.80;2.17;;;;;;;;;;4995222;28;20100;-88
2022/05/13 07:24:13;;;;;;;6.97;2.95;;;;;;;;;;4995031;28;20045;-87
2022/05/13 07:27:01;;;;;;;12.43;2.45;;;;;;;;;;4994653;28;20036;-86
2022/05/13 07:29:47;;;;;;;10.50;3.35;;;;;;;;;;4994680;28;20041;-86
2022/05/13 07:32:34;;;;;;;13.30;2.65;;;;;;;;;;4995153;28;20041;-87
2022/05/13 07:35:19;;;;;;;9.25;1.98;;;;;;;;;;4994711;28;20045;-86
2022/05/13 07:38:07;;;;;;;8.05;1.80;;;;;;;;;;4994817;28;20302;-86
2022/05/13 07:41:16;;;;;;;7.50;1.70;;;;;;;;;;4994379;28;20041;-87
2022/05/13 07:44:12;;;;;;;8.30;2.00;;;;;;;;;;4994386;28;20041;-87
2022/05/13 07:47:00;;;;;;;8.43;2.38;;;;;;;;;;4993551;28;20041;-86
2022/05/13 07:49:44;;;;;;;6.47;1.70;;;;;;;;;;4994210;28;20041;-88
2022/05/13 07:52:29;;;;;;;9.75;1.77;;;;;;;;;;4994487;28;20506;-86
2022/05/13 07:55:35;;;;;;;12.38;2.72;;;;;;;;;;4996813;28;20068;-88
2022/05/13 07:58:22;;;;;;;10.90;2.00;;;;;;;;;;5014081;28;20103;-86
2022/05/13 08:01:07;;;;;;;8.13;1.80;;;;;;;;;;5013885;28;20084;-86
2022/05/13 08:03:52;;;;;;;6.35;1.58;;;;;;;;;;5013383;28;20084;-86
2022/05/13 08:06:39;;;;;;;6.22;1.88;;;;;;;;;;5013827;28;20095;-87
2022/05/13 08:09:23;;;;;;;7.03;1.63;;;;;;;;;;5000029;28;20398;-87
2022/05/13 08:12:13;;;;;;;6.90;1.88;;;;;;;;;;5013691;28;20125;-86
2022/05/13 08:15:01;;;;;;;8.57;1.92;;;;;;;;;;4999437;28;20085;-87
2022/05/13 08:17:48;;;;;;;6.78;1.63;;;;;;;;;;5013314;28;20041;-87
2022/05/13 08:20:59;;;;;;;6.30;1.90;;;;;;;;;;5013756;28;20049;-87
2022/05/13 08:23:46;;;;;;;6.05;1.83;;;;;;;;;;5013361;28;20445;-90
2022/05/13 08:26:31;;;;;;;3.85;1.52;;;;;;;;;;5013501;28;20077;-87
2022/05/13 08:29:16;;;;;;;10.27;1.92;;;;;;;;;;5013419;28;20117;-86
2022/05/13 08:32:04;;;;;;;9.80;2.10;;;;;;;;;;5013111;28;20397;-85
2022/05/13 08:34:49;;;;;;;7.72;1.90;;;;;;;;;;5013025;28;20044;-87
2022/05/13 08:38:02;;;;;;;6.43;1.63;;;;;;;;;;5014354;28;20470;-87
2022/05/13 08:41:24;;;;;;;;;;;;;;;;;;;;;
2022/05/13 08:48:08;;;;;;;7.00;2.15;;;;;;;;;;4953774;28;20081;-88
2022/05/13 08:51:27;;;;;;;5.60;1.83;;;;;;;;;;4940046;29;20529;-88
2022/05/13 08:54:15;;;;;;;9.82;2.10;;;;;;;;;;4958623;28;20070;-86
2022/05/13 08:57:03;;;;;;;8.77;1.80;;;;;;;;;;5006574;28;20148;-85
2022/05/13 08:59:51;;;;;;;9.60;3.13;;;;;;;;;;4992924;28;20061;-89
2022/05/13 09:02:38;;;;;;;5.43;2.05;;;;;;;;;;4993265;28;20092;-86
2022/05/13 09:05:29;;;;;;;5.47;1.92;;;;;;;;;;4993143;28;20121;-86
2022/05/13 09:08:14;;;;;;;7.22;1.40;;;;;;;;;;4993131;28;20545;-86
2022/05/13 09:11:05;;;;;;;4.95;1.50;;;;;;;;;;4992939;28;20501;-86
2022/05/13 09:14:05;;;;;;;30.48;4.88;;;;;;;;;;4992706;28;20464;-88
2022/05/13 09:17:09;;;;;;;10.48;2.30;;;;;;;;;;4993046;28;20045;-86
2022/05/13 09:20:14;;;;;;;;;;;17.30;99.90;;;;;;4993126;28;20073;-87
2022/05/13 09:23:15;;;;;;;14.18;2.80;;;;;;;;;;4978843;28;19920;-86
2022/05/13 09:26:06;;;;;;;30.15;3.25;;;;;;;;;;4993523;28;20045;-87
2022/05/13 09:29:10;;;;;;;10.00;2.50;;;;;;;;;;4992674;28;20053;-88
2022/05/13 09:31:55;;;;;;;6.70;1.67;;;;;;;;;;4992555;28;20041;-87
2022/05/13 09:34:51;;;;;;;6.70;1.40;;;;;;;;;;4993717;28;20405;-86
2022/05/13 09:37:37;;;;;;;16.58;2.33;;;;;;;;;;4992577;28;20045;-86
2022/05/13 09:40:24;;;;;;;4.22;1.25;;;;;;;;;;4992680;28;20065;-85
2022/05/13 09:43:11;;;;;;;3.33;1.20;;;;;;;;;;4992296;28;20072;-86
2022/05/13 09:46:08;;;;;;;8.07;1.92;;;;;;;;;;4992520;28;20049;-85
2022/05/13 09:49:02;;;;;;;6.50;1.90;;;;;;;;;;4992605;28;20033;-85
2022/05/13 09:51:55;;;;;;;3.13;1.38;;;;;;;;;;4992406;28;20124;-86
2022/05/13 09:54:49;;;;;;;9.88;1.98;;;;;;;;;;4992558;28;20041;-86
2022/05/13 09:57:34;;;;;;;4.75;1.17;;;;;;;;;;4973128;28;20056;-86
2022/05/13 10:00:24;;;;;;;6.68;1.40;;;;;;;;;;4972851;28;20041;-86
2022/05/13 10:03:19;;;;;;;5.13;2.10;;;;;;;;;;4972759;28;20115;-85
2022/05/13 10:06:15;;;;;;;4.90;1.35;;;;;;;;;;4972817;28;20049;-84
2022/05/13 10:15:20;;;;;;;7.03;2.05;;;;;;;;;;4977382;28;20110;-86
2022/05/13 10:18:25;;;;;;;14.50;2.00;;;;;;;;;;4976425;28;20494;-85
2022/05/13 10:21:16;;;;;;;4.97;1.40;;;;;;;;;;4976480;28;20490;-87
2022/05/13 10:24:12;;;;;;;5.88;1.27;;;;;;;;;;4976439;28;20081;-87
2022/05/13 10:27:01;;;;;;;10.48;1.92;;;;;;;;;;4976719;28;20073;-86
2022/05/13 10:29:50;;;;;;;7.40;1.50;;;;;;;;;;4976540;28;20591;-87
2022/05/13 10:32:52;;;;;;;4.75;1.40;;;;;;;;;;4976627;28;20045;-85
2022/05/13 10:35:47;;;;;;;6.32;1.75;;;;;;;;;;4976490;28;20046;-86
2022/05/13 10:38:41;;;;;;;6.43;1.63;;;;;;;;;;4976412;28;20042;-86
2022/05/13 10:41:26;;;;;;;7.28;2.17;;;;;;;;;;4976551;28;20118;-86
2022/05/13 10:44:14;;;;;;;7.60;1.67;;;;;;;;;;4977160;28;20037;-86
2022/05/13 10:47:01;;;;;;;5.75;1.90;;;;;;;;;;4976380;28;20038;-85
2022/05/13 10:49:46;;;;;;;6.20;1.75;;;;;;;;;;4976343;28;20037;-85
2022/05/13 10:52:46;;;;;;;6.90;1.90;;;;;;;;;;4976488;28;20038;-86
2022/05/13 10:55:37;;;;;;;4.85;1.83;;;;;;;;;;4985651;28;20129;-86
2022/05/13 10:58:25;;;;;;;17.50;2.75;;;;;;;;;;5015804;28;20063;-85
2022/05/13 11:01:22;;;;;;;8.63;2.15;;;;;;;;;;5014723;28;20056;-85
2022/05/13 11:04:15;;;;;;;8.32;1.90;;;;;;;;;;5014790;28;20088;-87
2022/05/13 11:07:37;;;;;;;21.48;2.50;;;17.80;99.90;;;;;;5015071;28;20036;-86
2022/05/13 11:10:22;;;;;;;6.00;1.40;;;;;;;;;;5000792;28;20042;-85
2022/05/13 11:13:39;;;;;;;3.35;0.98;;;18.40;94.60;;;;;;5014439;28;20458;-85
2022/05/13 11:16:36;;;;;;;5.38;1.20;;;;;;;;;;5014338;28;20095;-86
2022/05/13 11:19:27;;;;;;;113.95;9.43;;;;;;;;;;5014500;28;20539;-85
2022/05/13 11:22:19;;;;;;;3.92;1.40;;;;;;;;;;4999764;28;20061;-85
2022/05/13 11:28:49;;;;;;;4.75;1.33;;;;;;;;;;5015245;28;20234;-86
2022/05/13 11:31:55;;;;;;;5.13;1.58;;;;;;;;;;5014476;28;20037;-86
2022/05/13 11:35:03;;;;;;;9.27;1.90;;;;;;;;;;5014480;28;20040;-85
2022/05/13 11:37:50;;;;;;;13.55;2.20;;;;;;;;;;4981124;28;20052;-86
2022/05/13 11:40:51;;;;;;;8.68;2.20;;;;;;;;;;5014466;28;20559;-85
2022/05/13 11:43:52;;;;;;;11.85;2.20;;;;;;;;;;5014214;28;20036;-86
2022/05/13 11:46:39;;;;;;;6.55;2.10;;;;;;;;;;5014215;28;20088;-86
2022/05/13 11:49:29;;;;;;;8.55;1.70;;;;;;;;;;5013779;28;20525;-86
2022/05/13 11:52:14;;;;;;;6.93;2.05;;;;;;;;;;5013804;28;20475;-86
2022/05/13 11:55:24;;;;;;;14.43;2.92;;;;;;;;;;5013770;28;20088;-86
2022/05/13 11:58:29;;;;;;;6.78;1.77;;;;;;;;;;5000105;28;20041;-88
2022/05/13 12:01:22;;;;;;;15.93;3.15;;;;;;;;;;5013730;28;20099;-86
2022/05/13 12:04:17;;;;;;;6.32;1.58;;;;;;;;;;5013830;28;20037;-87
2022/05/13 12:07:21;;;;;;;4.38;1.52;;;;;;;;;;5013861;28;20040;-86
2022/05/13 12:10:06;;;;;;;21.95;2.92;;;;;;;;;;5013907;28;20541;-85
2022/05/13 12:12:52;;;;;;;6.70;1.35;;;;;;;;;;5013936;28;20064;-85
2022/05/13 12:15:37;;;;;;;6.03;1.40;;;;;;;;;;5013243;28;20488;-86
2022/05/13 12:18:21;;;;;;;28.15;3.08;;;;;;;;;;5013475;28;20045;-89
2022/05/13 12:21:06;;;;;;;5.50;1.33;;;;;;;;;;5013495;28;20036;-86
2022/05/13 12:23:58;;;;;;;2.70;1.10;;;;;;;;;;5013497;28;20057;-84
2022/05/13 12:26:52;;;;;;;17.80;2.93;;;;;;;;;;5013596;28;20040;-85
2022/05/13 12:29:47;;;;;;;4.45;1.20;;;;;;;;;;5013347;28;20084;-86
2022/05/13 12:32:38;;;;;;;4.72;1.23;;;;;;;;;;5013597;28;20036;-86
2022/05/13 12:39:06;;;;;;;4.78;1.63;;;;;;;;;;5014547;28;20041;-86
2022/05/13 12:41:53;;;;;;;10.07;2.30;;;;;;;;;;5013190;28;20119;-86
2022/05/13 12:45:01;;;;;;;5.43;1.30;;;;;;;;;;5012981;28;20461;-85
2022/05/13 12:48:04;;;;;;;6.95;1.48;;;;;;;;;;4999394;28;20141;-86
2022/05/13 12:51:04;;;;;;;4.55;1.27;;;;;;;;;;5013127;28;20076;-85
2022/05/13 12:53:55;;;;;;;7.20;1.58;;;;;;;;;;5013130;28;20061;-86
2022/05/13 12:56:43;;;;;;;6.30;1.30;;;;;;;;;;5012556;28;20405;-86
2022/05/13 12:59:30;;;;;;;9.05;1.65;;;;;;;;;;5013522;28;20071;-87
2022/05/13 13:02:14;;;;;;;15.13;2.40;;;;;;;;;;5012890;28;20508;-86
2022/05/13 13:05:04;;;;;;;11.07;1.98;;;;;;;;;;5012767;28;20040;-85
2022/05/13 13:07:52;;;;;;;6.32;1.80;;;;;;;;;;5012744;28;20092;-86
2022/05/13 13:10:36;;;;;;;6.65;1.65;;;;;;;;;;5012391;28;20493;-85
2022/05/13 13:13:25;;;;;;;9.40;2.00;;;;;;;;;;5012450;28;20088;-87
2022/05/13 13:16:35;;;;;;;8.32;1.85;;;;;;;;;;5012487;28;20128;-84
2022/05/13 13:19:25;;;;;;;4.60;1.67;;;;;;;;;;5012544;28;20087;-86
2022/05/13 13:22:14;;;;;;;7.07;1.50;;;;;;;;;;5012414;28;20040;-85
2022/05/13 13:24:59;;;;;;;9.38;2.30;;;;;;;;;;5012472;28;20473;-85
2022/05/13 13:28:02;;;;;;;;;;;;;;;;;;;;;
2022/05/13 13:30:52;;;;;;;10.02;2.42;;;;;;;;;;5013542;28;20398;-86
2022/05/13 13:33:46;;;;;;;7.63;1.80;;;;;;;;;;5012205;28;20041;-86
2022/05/13 13:36:48;;;;;;;10.95;2.50;;;;;;;;;;5013202;28;20532;-85
2022/05/13 13:42:47;;;;;;;6.10;1.65;;;;;;;;;;5012873;28;20584;-84
2022/05/13 13:45:34;;;;;;;9.95;1.85;;;;;;;;;;5011820;28;20092;-86
2022/05/13 13:48:30;;;;;;;4.72;1.88;;;;;;;;;;5012475;28;20037;-86
2022/05/13 13:51:25;;;;;;;9.88;2.05;;;;;;;;;;5012845;28;20180;-87
2022/05/13 13:54:16;;;;;;;6.47;1.55;;;;;;;;;;5012323;28;20045;-85
2022/05/13 13:57:15;;;;;;;7.63;2.25;;;;;;;;;;5012387;28;20057;-85
2022/05/13 14:00:08;;;;;;;7.82;1.85;;;;;;;;;;5013603;28;20041;-87
2022/05/13 14:03:01;;;;;;;4.88;1.63;;;;;;;;;;5013420;28;20457;-86
2022/05/13 14:06:04;;;;;;;9.90;2.05;;;;;;;;;;5012589;28;20477;-86
2022/05/13 14:08:51;;;;;;;7.60;2.10;;;;;;;;;;5014013;28;20103;-86
2022/05/13 14:11:36;;;;;;;9.20;2.03;;;;;;;;;;5012056;28;20083;-86
2022/05/13 14:14:22;;;;;;;10.55;2.25;;;;;;;;;;5012958;28;20037;-86
2022/05/13 14:17:14;;;;;;;9.85;2.15;;;;;;;;;;5014668;28;20394;-86
2022/05/13 14:20:09;;;;;;;10.38;2.22;;;;;;;;;;5012305;28;20525;-86
2022/05/13 14:22:54;;;;;;;9.98;3.03;;;;;;;;;;5012894;28;20036;-86
2022/05/13 14:25:54;;;;;;;9.60;2.40;;;;;;;;;;5013443;28;20037;-86
2022/05/13 14:28:49;;;;;;;8.50;1.95;;;;;;;;;;5013265;28;20061;-87
2022/05/13 14:31:35;;;;;;;15.93;4.13;;;;;;;;;;5013124;28;20092;-85
2022/05/13 14:34:20;;;;;;;8.38;1.90;;;;;;;;;;5012054;28;20041;-85
2022/05/13 14:37:16;;;;;;;12.07;2.08;;;;;;;;;;5013066;28;20560;-85
2022/05/13 14:40:12;;;;;;;11.05;2.80;;;;;;;;;;5012082;28;20081;-86
